St. George, Utah Weather observations

Data are for observation ending at time listed.
 Day   Time    Ave.   Ave.  Ave.  Vector   Max.   Stn.    Total    Solar   Ave.  
  of    of     Air    Rel.  Wind   Wind    Wind   Baro.  Precip.   Rad.    Soil  
Year   Day     Temp.  Hum.  Speed  Dir.    Gust   Pres.                    Temp. 
2016   (MST)    F      %     mph   deg.    mph     mb.     in.     W/m2     F   
------------------------------------------------------------------------------
 151   16:50   85.9    14    4.3    56     10.7   916.1    0.00     540    78.5
 151   17:00   86.9    14    3.8    52      8.2   915.8    0.00     541    78.5
 151   17:10   87.1    13    3.0    61      8.0   915.8    0.00     496    78.5
 151   17:20   87.1    13    2.5    61      7.2   915.7    0.00     467    78.5
 151   17:30   87.1    14    3.6    41      7.7   915.6    0.00     437    78.5
 151   17:40   86.8    14    4.3    34      9.1   915.5    0.00     389    78.5
 151   17:50   86.3    13    4.1    13      6.6   915.5    0.00     355    78.5
 151   18:00   86.2    13    3.7    15      8.6   915.4    0.00     301    78.6
 151   18:10   86.5    13    3.8    15      8.3   915.4    0.00      89    78.6
 151   18:20   86.0    14    2.3    30      6.2   915.3    0.00      56    78.6
 151   18:30   85.6    14    2.1    35      4.7   915.4    0.00      45    78.6
 151   18:40   85.4    14    2.3    46      5.0   915.3    0.00      50    78.7
 151   18:50   85.1    14    1.5    23      3.4   915.3    0.00      42    78.6
 151   19:00   85.1    14    0.5   298      1.9   915.2    0.00      28    78.6
 151   19:10   83.8    15    0.2    48      1.0   915.2    0.00      22    78.6
 151   19:20   83.0    15    0.9    36      1.6   915.2    0.00      18    78.5
 151   19:30   83.0    15    1.0    12      2.2   915.2    0.00      12    78.5
 151   19:40   82.7    16    0.6   355      2.1   915.3    0.00       8    78.5
 151   19:50   82.1    16    0.9    16      1.5   915.3    0.00       3    78.4
 151   20:00   81.1    16    0.9    45      1.8   915.3    0.00       3    78.4
 151   20:10   80.6    17    0.8    30      1.6   915.3    0.00       2    78.3
 151   20:20   80.6    17    1.3     6      2.3   915.4    0.00       0    78.3
 151   20:30   80.3    16    0.9    40      1.5   915.3    0.00       0    78.2
 151   20:40   79.6    17    0.7   358      1.5   915.4    0.00       0    78.2
 151   20:50   78.5    19    0.6   310      1.9   915.5    0.00       0    78.0
 151   21:00   77.4    21    0.3   218      1.0   915.6    0.00       0    78.0
 151   21:10   76.1    23    0.0   169      0.7   915.6    0.00       0    78.0
 151   21:20   75.5    23    0.5   244      2.3   915.8    0.00       0    77.9
 151   21:30   74.8    23    0.4   287      1.5   915.9    0.00       0    77.8
 151   21:40   75.4    23    1.2   154      2.4   916.2    0.00       0    77.7
 151   21:50   74.8    26    1.3    47      3.6   916.3    0.00       0    77.6
 151   22:00   74.5    26    0.6    27      1.5   916.4    0.00       0    77.6
 151   22:10   74.6    25    1.2    52      2.8   916.4    0.00       0    77.5
 151   22:20   74.8    25    1.2    42      2.8   916.4    0.00       0    77.4
 151   22:30   75.0    26    0.9    50      2.2   916.4    0.00       0    77.3
 151   22:40   74.0    27    0.2   351      1.2   916.4    0.00       0    77.2
 151   22:50   73.0    26    0.5   297      2.3   916.5    0.00       0    77.1
 151   23:00   72.6    27    1.6   310      3.2   916.5    0.00       0    77.1
 151   23:10   72.6    28    1.0   343      2.3   916.5    0.00       0    77.0
 151   23:20   72.2    27    1.1   327      3.7   916.5    0.00       0    76.9
 151   23:30   72.9    26    1.4   314      3.7   916.6    0.00       0    76.8
 151   23:40   72.5    28    0.5     4      2.3   916.6    0.00       0    76.7
 151   23:50   71.4    30    0.6   200      2.3   916.7    0.00       0    76.6
 152    0:00   71.1    29    0.8   297      2.6   916.6    0.00       0    76.6
 152    0:10   71.0    29    1.2   332      2.0   916.5    0.00       0    76.5
 152    0:20   70.7    30    0.8     2      1.5   916.5    0.00       0    76.4
 152    0:30   70.0    32    0.1    29      0.9   916.5    0.00       0    76.3
 152    0:40   69.4    32    0.1    75      1.0   916.5    0.00       0    76.2
 152    0:50   69.1    32    0.2   350      1.2   916.5    0.00       0    76.1
 152    1:00   68.9    31    0.3    40      1.5   916.6    0.00       0    76.0
 152    1:10   69.2    31    0.4   343      2.2   916.7    0.00       0    76.0
 152    1:20   69.1    32    0.5    76      2.3   916.6    0.00       0    75.9
 152    1:30   68.9    31    0.1    42      1.5   916.7    0.00       0    75.8
 152    1:40   68.4    34    0.0     0      0.0   916.7    0.00       0    75.7
 152    1:50   68.2    33    1.0    44      3.1   916.6    0.00       0    75.6
 152    2:00   68.8    31    0.5    40      2.3   916.6    0.00       0    75.5
 152    2:10   68.6    32    0.1   139      1.1   916.6    0.00       0    75.4
 152    2:20   67.7    33    0.6   230      2.2   916.7    0.00       0    75.4
 152    2:30   67.1    34    0.7   173      1.8   916.6    0.00       0    75.3
 152    2:40   66.5    36    0.8   311      2.0   916.7    0.00       0    75.2
 152    2:50   66.0    38    0.6   332      2.3   916.8    0.00       0    75.1
 152    3:00   65.5    39    0.2   208      2.2   916.9    0.00       0    75.0
 152    3:10   64.7    40    0.6   332      1.8   916.9    0.00       0    74.9
 152    3:20   64.4    40    1.3   321      2.3   916.8    0.00       0    74.8
 152    3:30   64.1    42    0.8   338      2.8   916.9    0.00       0    74.8
 152    3:40   63.6    42    0.0     0      0.0   917.0    0.00       0    74.7
 152    3:50   63.5    44    0.4   332      1.5   917.0    0.00       0    74.6
 152    4:00   63.7    42    0.6   348      2.2   917.0    0.00       0    74.5
 152    4:10   63.6    42    0.2   344      2.0   917.1    0.00       0    74.4
 152    4:20   63.9    36    0.7    72      2.7   917.2    0.00       0    74.3
 152    4:30   64.6    33    0.9    30      2.9   917.3    0.00       0    74.2
 152    4:40   64.1    34    0.7   278      1.8   917.3    0.00       0    74.1
 152    4:50   63.8    35    0.4   292      1.5   917.3    0.00       0    74.0
 152    5:00   63.0    36    0.1   118      1.8   917.3    0.00       0    74.0
 152    5:10   62.7    40    0.4   130      1.7   917.4    0.00       1    73.9
 152    5:20   62.1    44    0.1   104      1.2   917.5    0.00       3    73.8
 152    5:30   61.7    43    0.2     7      1.2   917.6    0.00       7    73.7
 152    5:40   61.6    43    0.6   253      2.7   917.6    0.00      12    73.6
 152    5:50   61.1    46    0.1   283      2.0   917.6    0.00      17    73.6
 152    6:00   61.4    44    0.1   320      0.7   917.7    0.00      33    73.5
 152    6:10   63.2    43    0.1   220      0.8   917.9    0.00      64    73.4
 152    6:20   66.5    38    0.2    57      0.9   918.0    0.00      99    73.3
 152    6:30   68.8    33    0.0    20      0.8   918.0    0.00     133    73.2
 152    6:40   69.2    32    0.4   189      1.5   918.1    0.00     162    73.1
 152    6:50   68.1    30    0.4   170      1.5   918.1    0.00     193    73.1
 152    7:00   68.6    28    0.7   178      1.8   918.2    0.00     225    73.0
 152    7:10   69.0    28    0.9   147      1.8   918.3    0.00     259    73.0
 152    7:20   69.9    28    0.2   158      1.2   918.3    0.00     294    72.9
 152    7:30   70.3    28    1.0   164      2.2   918.3    0.00     328    72.9
 152    7:40   70.8    27    0.8   161      1.8   918.4    0.00     363    72.8
 152    7:50   70.7    27    1.3   185      3.2   918.4    0.00     398    72.8
 152    8:00   71.7    26    0.8   143      3.3   918.4    0.00     433    72.8
 152    8:10   72.8    25    1.0   176      2.8   918.3    0.00     466    72.8
 152    8:20   73.7    24    0.5   154      2.3   918.3    0.00     497    72.7
 152    8:30   74.3    24    1.0   181      3.4   918.3    0.00     531    72.7
 152    8:40   75.9    24    1.0   135      3.8   918.2    0.00     564    72.7
 152    8:50   76.7    22    0.8   163      2.7   918.2    0.00     596    72.7
 152    9:00   77.0    22    1.2   194      3.1   918.1    0.00     627    72.7
 152    9:10   77.4    22    1.7    74      3.5   918.0    0.00     645    72.7
 152    9:20   77.9    22    1.5   123      3.3   918.0    0.00     688    72.8
 152    9:30   78.7    20    1.8   156      4.2   917.8    0.00     717    72.8
 152    9:40   80.5    19    1.1   112      3.6   917.8    0.00     739    72.9
 152    9:50   80.6    19    1.7   188      4.6   917.6    0.00     763    73.0
 152   10:00   80.6    19    1.7   198      4.1   917.5    0.00     788    73.0
 152   10:10   81.8    20    1.1    92      3.1   917.4    0.00     811    73.1
 152   10:20   82.1    18    2.3   178      5.6   917.3    0.00     832    73.3
 152   10:30   82.6    18    1.9   183      5.6   917.2    0.00     854    73.4
 152   10:40   83.6    17    2.1   211      5.7   917.0    0.00     874    73.5
 152   10:50   84.0    16    3.3   203      5.9   916.9    0.00     896    73.6
 152   11:00   84.7    16    3.0   174      8.6   916.8    0.00     912    73.8
 152   11:10   85.3    16    2.3   155      5.3   916.7    0.00     928    73.9
 152   11:20   86.7    15    3.5   197      7.8   916.6    0.00     940    74.1
 152   11:30   86.2    14    3.4   231      7.5   916.5    0.00     952    74.3
 152   11:40   87.0    14    2.0   273      6.6   916.5    0.00     963    74.5
 152   11:50   87.5    13    2.3   235      6.5   916.2    0.00     972    74.7
 152   12:00   87.5    13    3.8   188      7.3   916.2    0.00     980    74.9
 152   12:10   88.0    12    1.9   228      5.1   916.0    0.00     981    75.1
 152   12:20   89.5    12    2.1   266      6.0   915.9    0.00     983    75.3
 152   12:30   89.3    12    2.3   226      9.3   915.8    0.00     987    75.5
 152   12:40   89.3    12    1.7   255      6.4   915.7    0.00     986    75.7
 152   12:50   89.4    12    3.3   197      8.7   915.5    0.00     985    76.0
 152   13:00   89.9    12    2.0   215      9.9   915.5    0.00     979    76.2
 152   13:10   90.2    12    1.4   123      4.2   915.3    0.00     972    76.5
 152   13:20   89.8    13    2.4   107      6.2   915.1    0.00     971    76.7
 152   13:30   90.9    13    1.1   118      7.7   914.9    0.00     962    76.9
 152   13:40   91.1    12    1.9   153      6.9   914.8    0.00     956    77.2
 152   13:50   91.5    12    4.7   191     13.2   914.7    0.00     951    77.4
 152   14:00   91.3    12    3.3   185      9.1   914.6    0.00     944    77.6
 152   14:10   91.1    11    2.2   177      6.1   914.4    0.00     932    77.8
 152   14:20   92.4    11    4.7   232     16.3   914.3    0.00     916    77.9
 152   14:30   92.9    11    5.1   224     12.2   914.3    0.00     904    78.1
 152   14:40   93.2    11    3.8   238      8.0   914.1    0.00     884    78.2
 152   14:50   93.1    10    3.4   246      9.1   913.9    0.00     866    78.4
 152   15:00   93.4    10    1.9   258      6.0   913.7    0.00     845    78.5
 152   15:10   93.6    10    4.3   235     11.9   913.5    0.00     825    78.6
 152   15:20   94.4    10    3.5   279     13.8   913.4    0.00     804    78.8
 152   15:30   94.1    10    3.9   291     11.1   913.2    0.00     782    78.9
 152   15:40   94.2    10    3.2   298      9.7   912.9    0.00     758    79.1
 152   15:50   93.5    10    6.2   252     12.3   912.7    0.00     736    79.2
 152   16:00   94.2    10    4.7   285     14.2   912.6    0.00     708    79.4
 152   16:10   94.8    10    4.2   300     10.7   912.5    0.00     679    79.5
 152   16:20   94.3    10    6.0    10     12.6   912.3    0.00     649    79.7
 152   16:30   94.0    10    2.9    85      9.1   912.4    0.00     617    79.9
 152   16:40   93.4    11    3.8    14      8.6   912.4    0.00     589    79.9

Return to St. George, Utah graphs page.


Western Regional Climate Center,wrcc@dri.edu